createdAt,value
2024-01-24T00:05:27.821Z,2.25
2024-01-24T00:15:32.309Z,2.55
2024-01-24T00:25:35.031Z,1.75
2024-01-24T00:35:39.449Z,2.65
2024-01-24T00:45:42.238Z,1.17
2024-01-24T00:55:47.426Z,1.23
2024-01-24T01:05:50.701Z,1.23
2024-01-24T01:15:55.209Z,2.75
2024-01-24T01:25:57.980Z,0.80
2024-01-24T01:36:08.948Z,0.70
2024-01-24T01:46:21.000Z,0.57
2024-01-24T01:56:25.873Z,1.60
2024-01-24T02:06:30.093Z,0.32
2024-01-24T02:16:34.354Z,0.90
2024-01-24T02:26:38.707Z,0.63
2024-01-24T02:36:41.491Z,0.75
2024-01-24T02:56:48.378Z,0.93
2024-01-24T03:06:52.795Z,1.45
2024-01-24T03:16:55.581Z,1.17
2024-01-24T03:26:59.705Z,1.10
2024-01-24T03:37:02.703Z,0.82
2024-01-24T03:47:07.267Z,0.73
2024-01-24T03:57:10.069Z,1.90
2024-01-24T04:17:16.929Z,0.50
2024-01-24T04:37:23.732Z,1.02
2024-01-24T04:47:27.990Z,0.68
2024-01-24T04:57:30.860Z,0.60
2024-01-24T05:07:35.647Z,0.57
2024-01-24T05:17:40.228Z,0.43
2024-01-24T05:27:44.490Z,0.95
2024-01-24T05:37:47.377Z,0.30
2024-01-24T05:47:51.595Z,0.47
2024-01-24T05:57:54.523Z,0.47
2024-01-24T06:07:58.703Z,0.40
2024-01-24T06:18:01.558Z,0.90
2024-01-24T06:28:06.388Z,1.58
2024-01-24T06:38:09.272Z,1.13
2024-01-24T06:58:16.549Z,1.52
2024-01-24T07:08:20.745Z,0.77
2024-01-24T07:18:23.681Z,2.85
2024-01-24T07:28:30.292Z,1.00
2024-01-24T07:38:33.366Z,2.42
2024-01-24T07:48:37.706Z,0.60
2024-01-24T07:58:41.911Z,2.72
2024-01-24T08:08:46.349Z,8.20
2024-01-24T08:18:50.472Z,7.40
2024-01-24T08:28:54.721Z,4.55
2024-01-24T08:38:57.492Z,6.00
2024-01-24T08:49:04.083Z,8.07
2024-01-24T08:59:07.249Z,7.70
2024-01-24T09:09:15.240Z,9.43
2024-01-24T09:19:19.053Z,8.00
2024-01-24T09:29:23.517Z,13.18
2024-01-24T09:39:27.025Z,13.43
2024-01-24T09:49:33.129Z,10.85
2024-01-24T09:59:36.045Z,14.82
2024-01-24T10:09:40.178Z,15.63
2024-01-24T10:19:43.395Z,13.65
2024-01-24T10:29:47.712Z,16.77
2024-01-24T10:39:53.572Z,11.65
2024-01-24T10:50:02.227Z,16.70
2024-01-24T11:00:07.164Z,17.63
2024-01-24T11:10:17.918Z,16.55
2024-01-24T11:20:23.205Z,17.02
2024-01-24T11:30:40.569Z,13.23
2024-01-24T11:40:45.230Z,14.23
2024-01-24T11:50:55.846Z,16.42
2024-01-24T12:01:00.879Z,14.55
2024-01-24T12:11:05.885Z,12.65
2024-01-24T12:21:10.410Z,19.05
2024-01-24T12:31:15.086Z,18.95
2024-01-24T12:41:18.476Z,15.40
2024-01-24T12:51:23.161Z,25.55
2024-01-24T13:01:26.072Z,12.55
2024-01-24T13:11:30.420Z,10.57
2024-01-24T13:21:33.867Z,17.85
2024-01-24T13:31:38.025Z,15.27
2024-01-24T13:41:41.070Z,15.43
2024-01-24T13:51:45.821Z,15.40
2024-01-24T14:01:54.066Z,19.17
2024-01-24T14:12:04.048Z,21.25
2024-01-24T14:22:07.619Z,16.02
2024-01-24T14:32:12.109Z,15.07
2024-01-24T14:42:15.089Z,18.90
2024-01-24T14:52:19.313Z,17.45
2024-01-24T15:02:22.102Z,16.38
2024-01-24T15:22:31.648Z,19.52
2024-01-24T15:32:35.874Z,17.25
2024-01-24T15:42:42.952Z,17.35
2024-01-24T15:52:48.415Z,15.20
2024-01-24T16:02:51.437Z,20.63
2024-01-24T16:23:02.440Z,16.50
2024-01-24T16:43:10.309Z,14.30
2024-01-24T16:53:14.788Z,17.30
2024-01-24T17:03:17.578Z,17.83
2024-01-24T17:13:22.904Z,17.63
2024-01-24T17:23:25.766Z,23.30
2024-01-24T17:33:30.247Z,15.50
2024-01-24T17:43:35.084Z,17.30
2024-01-24T17:53:39.869Z,15.00
2024-01-24T18:03:42.725Z,15.50
2024-01-24T18:13:46.912Z,27.48
2024-01-24T18:23:50.004Z,24.52
2024-01-24T18:33:56.377Z,20.42
2024-01-24T18:43:59.352Z,18.48
2024-01-24T18:54:03.798Z,26.05
2024-01-24T19:04:06.842Z,23.10
2024-01-24T19:14:11.252Z,22.20
2024-01-24T19:24:14.354Z,19.55
2024-01-24T19:44:23.091Z,16.90
2024-01-24T19:54:27.977Z,21.67
2024-01-24T20:04:31.380Z,18.30
2024-01-24T20:14:36.824Z,25.35
2024-01-24T20:24:39.917Z,21.25
2024-01-24T20:34:44.194Z,21.55
2024-01-24T20:44:47.087Z,29.80
2024-01-24T20:54:53.305Z,18.52
2024-01-24T21:04:56.275Z,20.52
2024-01-24T21:25:10.161Z,18.23
2024-01-24T21:35:14.469Z,19.27
2024-01-24T21:45:17.658Z,17.10
2024-01-24T22:05:24.649Z,17.40
2024-01-24T22:15:28.992Z,22.98
2024-01-24T22:25:33.985Z,20.17
2024-01-24T22:35:43.204Z,17.15
2024-01-24T22:45:46.470Z,14.70
2024-01-24T22:55:50.682Z,15.27
2024-01-24T23:05:57.111Z,17.20
2024-01-24T23:16:01.500Z,15.73
2024-01-24T23:26:04.390Z,17.50
2024-01-24T23:36:09.500Z,20.67
2024-01-24T23:46:12.939Z,15.52
2024-01-24T23:56:17.100Z,14.63
